Time,TemperatureF,DewpointF,PressureIn,WindDirection,WindDirectionDegrees,WindSpeedMPH,WindSpeedGustMPH,Humidity,HourlyPrecipIn,Conditions,Clouds,dailyrainin,SoftwareType,DateUTC
2013-03-01 00:00:00,29.9,23.5,30.02,North,0,1.6,1.8,77,0.00,,,0.24,WUHU216HW,2013-03-01 05:00:00,
2013-03-01 00:05:00,29.9,23.9,30.02,North,0,1.1,1.8,78,0.00,,,0.00,WUHU216HW,2013-03-01 05:05:00,
2013-03-01 00:06:00,29.9,23.9,30.02,NNW,338,1.1,1.8,78,0.00,,,0.00,WUHU216HW,2013-03-01 05:06:00,
2013-03-01 00:11:00,29.9,23.9,30.02,NNW,338,1.6,1.8,78,0.00,,,0.00,WUHU216HW,2013-03-01 05:11:00,
2013-03-01 00:16:00,29.7,23.3,30.02,North,0,1.8,1.8,77,0.00,,,0.00,WUHU216HW,2013-03-01 05:16:00,
2013-03-01 00:21:00,29.7,23.7,30.02,NNW,338,0.7,2.9,78,0.00,,,0.00,WUHU216HW,2013-03-01 05:21:00,
2013-03-01 00:26:00,29.5,23.5,30.02,NNW,338,1.8,2.9,78,0.00,,,0.00,WUHU216HW,2013-03-01 05:26:00,
2013-03-01 00:31:00,29.3,23.3,30.02,North,0,0.7,4.3,78,0.00,,,0.00,WUHU216HW,2013-03-01 05:31:00,
2013-03-01 00:36:00,29.5,23.5,30.02,North,0,2.2,4.3,78,0.00,,,0.00,WUHU216HW,2013-03-01 05:36:00,
2013-03-01 00:41:00,29.5,23.8,30.02,North,0,2.7,2.7,79,0.00,,,0.00,WUHU216HW,2013-03-01 05:41:00,
2013-03-01 00:46:00,29.5,23.8,30.01,North,0,2.0,2.7,79,0.00,,,0.00,WUHU216HW,2013-03-01 05:46:00,
2013-03-01 00:51:00,29.5,23.8,30.02,NNW,338,1.3,2.5,79,0.00,,,0.00,WUHU216HW,2013-03-01 05:51:00,
2013-03-01 00:56:00,29.3,23.7,30.02,NNW,338,0.4,2.5,79,0.00,,,0.00,WUHU216HW,2013-03-01 05:56:00,
2013-03-01 01:01:00,29.3,23.7,30.02,NNE,23,3.4,3.4,79,0.00,,,0.00,WUHU216HW,2013-03-01 06:01:00,
2013-03-01 01:06:00,29.3,23.7,30.02,NNW,338,1.3,4.0,79,0.00,,,0.00,WUHU216HW,2013-03-01 06:06:00,
2013-03-01 01:11:00,29.3,23.7,30.02,NNW,338,1.8,4.0,79,0.00,,,0.00,WUHU216HW,2013-03-01 06:11:00,
2013-03-01 01:16:00,29.5,23.8,30.02,NE,45,1.1,2.5,79,0.00,,,0.00,WUHU216HW,2013-03-01 06:16:00,
2013-03-01 01:21:00,29.5,23.8,30.02,North,0,1.3,2.5,79,0.00,,,0.00,WUHU216HW,2013-03-01 06:21:00,
2013-03-01 01:26:00,29.3,23.7,30.02,NNE,23,1.8,4.0,79,0.00,,,0.00,WUHU216HW,2013-03-01 06:26:00,
2013-03-01 01:31:00,29.3,23.3,30.02,North,0,2.5,4.0,78,0.00,,,0.00,WUHU216HW,2013-03-01 06:31:00,
2013-03-01 01:36:00,29.2,23.1,30.03,NNW,338,2.5,3.6,78,0.00,,,0.00,WUHU216HW,2013-03-01 06:36:00,
2013-03-01 01:41:00,29.2,23.1,30.03,NNW,338,1.8,4.7,78,0.00,,,0.00,WUHU216HW,2013-03-01 06:41:00,
2013-03-01 01:46:00,29.2,23.1,30.03,North,0,0.7,4.7,78,0.00,,,0.00,WUHU216HW,2013-03-01 06:46:00,
2013-03-01 01:51:00,29.2,23.1,30.03,NNW,338,1.6,2.5,78,0.00,,,0.00,WUHU216HW,2013-03-01 06:51:00,
2013-03-01 01:56:00,29.3,23.3,30.03,NNW,338,3.4,4.7,78,0.00,,,0.00,WUHU216HW,2013-03-01 06:56:00,
2013-03-01 02:01:00,29.3,23.3,30.03,NNW,338,1.3,4.7,78,0.00,,,0.00,WUHU216HW,2013-03-01 07:01:00,
2013-03-01 02:06:00,29.2,22.9,30.03,NNW,338,1.1,4.7,77,0.00,,,0.00,WUHU216HW,2013-03-01 07:06:00,
2013-03-01 02:11:00,29.2,23.1,30.03,NNW,338,1.6,4.7,78,0.00,,,0.00,WUHU216HW,2013-03-01 07:11:00,
2013-03-01 02:16:00,29.2,22.9,30.03,NNW,338,0.2,2.9,77,0.00,,,0.00,WUHU216HW,2013-03-01 07:16:00,
2013-03-01 02:21:00,29.2,22.9,30.03,North,0,2.2,5.6,77,0.00,,,0.00,WUHU216HW,2013-03-01 07:21:00,
2013-03-01 02:26:00,29.2,22.9,30.03,North,0,2.0,5.6,77,0.00,,,0.00,WUHU216HW,2013-03-01 07:26:00,
2013-03-01 02:31:00,29.2,22.5,30.03,NNE,23,1.3,4.9,76,0.00,,,0.00,WUHU216HW,2013-03-01 07:31:00,
2013-03-01 02:36:00,29.2,22.9,30.03,NNE,23,2.5,4.9,77,0.00,,,0.00,WUHU216HW,2013-03-01 07:36:00,
2013-03-01 02:41:00,29.0,22.3,30.03,NNW,338,0.9,2.5,76,0.00,,,0.00,WUHU216HW,2013-03-01 07:41:00,
2013-03-01 02:46:00,29.0,22.3,30.03,North,0,2.5,2.5,76,0.00,,,0.00,WUHU216HW,2013-03-01 07:46:00,
2013-03-01 02:51:00,29.0,22.3,30.03,NNW,338,1.8,3.1,76,0.00,,,0.00,WUHU216HW,2013-03-01 07:51:00,
2013-03-01 02:56:00,29.0,22.3,30.03,NNW,338,2.5,3.1,76,0.00,,,0.00,WUHU216HW,2013-03-01 07:56:00,
2013-03-01 03:01:00,29.0,22.3,30.03,North,0,2.9,5.4,76,0.00,,,0.00,WUHU216HW,2013-03-01 08:01:00,
2013-03-01 03:06:00,29.0,22.3,30.03,NNE,23,1.1,5.4,76,0.00,,,0.00,WUHU216HW,2013-03-01 08:06:00,
2013-03-01 03:11:00,29.0,22.1,30.03,NNW,338,2.0,2.2,75,0.00,,,0.00,WUHU216HW,2013-03-01 08:11:00,
2013-03-01 03:16:00,28.8,21.9,30.03,NNW,338,2.2,2.2,75,0.00,,,0.00,WUHU216HW,2013-03-01 08:16:00,
2013-03-01 03:21:00,28.6,21.7,30.03,NNW,338,2.7,4.7,75,0.00,,,0.00,WUHU216HW,2013-03-01 08:21:00,
2013-03-01 03:26:00,28.6,21.7,30.03,NNW,338,3.6,4.7,75,0.00,,,0.00,WUHU216HW,2013-03-01 08:26:00,
2013-03-01 03:31:00,28.6,21.7,30.03,NNW,338,2.0,3.8,75,0.00,,,0.00,WUHU216HW,2013-03-01 08:31:00,
2013-03-01 03:36:00,28.6,21.7,30.03,North,0,1.6,4.9,75,0.00,,,0.00,WUHU216HW,2013-03-01 08:36:00,
2013-03-01 03:41:00,28.6,21.7,30.03,NE,45,4.7,4.9,75,0.00,,,0.00,WUHU216HW,2013-03-01 08:41:00,
2013-03-01 03:46:00,28.4,21.5,30.03,NNE,23,2.2,4.7,75,0.00,,,0.00,WUHU216HW,2013-03-01 08:46:00,
2013-03-01 03:51:00,28.4,21.5,30.03,NNE,23,2.7,4.7,75,0.00,,,0.00,WUHU216HW,2013-03-01 08:51:00,
2013-03-01 03:56:00,28.4,21.5,30.03,NW,315,4.0,4.0,75,0.00,,,0.00,WUHU216HW,2013-03-01 08:56:00,
2013-03-01 04:01:00,28.4,21.5,30.03,NW,315,2.0,4.0,75,0.00,,,0.00,WUHU216HW,2013-03-01 09:01:00,
2013-03-01 04:06:00,28.4,21.5,30.03,NNW,338,2.9,3.4,75,0.00,,,0.00,WUHU216HW,2013-03-01 09:06:00,
2013-03-01 04:11:00,28.3,21.6,30.03,NNW,338,1.3,4.5,76,0.00,,,0.00,WUHU216HW,2013-03-01 09:11:00,
2013-03-01 04:16:00,28.3,21.6,30.04,North,0,4.5,4.5,76,0.00,,,0.00,WUHU216HW,2013-03-01 09:16:00,
2013-03-01 04:21:00,28.3,21.6,30.04,NNW,338,2.0,4.5,76,0.00,,,0.00,WUHU216HW,2013-03-01 09:21:00,
2013-03-01 04:26:00,28.3,21.6,30.04,NE,45,2.2,4.9,76,0.00,,,0.00,WUHU216HW,2013-03-01 09:26:00,
2013-03-01 04:31:00,28.3,21.6,30.04,NE,45,4.3,4.9,76,0.00,,,0.00,WUHU216HW,2013-03-01 09:31:00,
2013-03-01 04:36:00,28.3,21.6,30.04,NNW,338,0.9,4.3,76,0.00,,,0.00,WUHU216HW,2013-03-01 09:36:00,
2013-03-01 04:41:00,28.3,21.6,30.04,NNW,338,1.6,3.4,76,0.00,,,0.00,WUHU216HW,2013-03-01 09:41:00,
2013-03-01 04:46:00,28.3,21.6,30.04,NNW,338,1.8,5.4,76,0.00,,,0.00,WUHU216HW,2013-03-01 09:46:00,
2013-03-01 04:51:00,28.4,22.2,30.05,NNE,23,0.7,5.4,77,0.00,,,0.00,WUHU216HW,2013-03-01 09:51:00,
2013-03-01 04:56:00,28.4,21.5,30.04,NNE,23,2.9,9.2,75,0.00,,,0.00,WUHU216HW,2013-03-01 09:56:00,
2013-03-01 05:01:00,28.3,21.3,30.05,NNW,338,2.9,9.2,75,0.00,,,0.00,WUHU216HW,2013-03-01 10:01:00,
2013-03-01 05:06:00,28.1,21.2,30.05,NNW,338,1.8,5.6,75,0.00,,,0.00,WUHU216HW,2013-03-01 10:06:00,
2013-03-01 05:11:00,27.9,21.0,30.05,NNE,23,4.7,6.0,75,0.00,,,0.00,WUHU216HW,2013-03-01 10:11:00,
2013-03-01 05:16:00,27.9,21.0,30.05,NNE,23,2.9,6.0,75,0.00,,,0.00,WUHU216HW,2013-03-01 10:16:00,
2013-03-01 05:21:00,27.7,20.8,30.05,NNW,338,3.4,3.8,75,0.00,,,0.00,WUHU216HW,2013-03-01 10:21:00,
2013-03-01 05:26:00,27.7,20.8,30.05,NNE,23,2.5,4.3,75,0.00,,,0.00,WUHU216HW,2013-03-01 10:26:00,
2013-03-01 05:31:00,27.7,21.1,30.05,NE,45,1.3,4.3,76,0.00,,,0.00,WUHU216HW,2013-03-01 10:31:00,
2013-03-01 05:36:00,27.7,21.1,30.05,NW,315,2.2,3.8,76,0.00,,,0.00,WUHU216HW,2013-03-01 10:36:00,
2013-03-01 05:41:00,27.7,21.1,30.05,NNW,338,0.9,3.8,76,0.00,,,0.00,WUHU216HW,2013-03-01 10:41:00,
2013-03-01 05:46:00,27.9,21.2,30.06,North,0,0.9,2.0,76,0.00,,,0.00,WUHU216HW,2013-03-01 10:46:00,
2013-03-01 05:51:00,27.7,21.1,30.06,North,0,4.9,4.9,76,0.00,,,0.00,WUHU216HW,2013-03-01 10:51:00,
2013-03-01 05:56:00,27.7,21.1,30.06,NNW,338,2.5,4.9,76,0.00,,,0.00,WUHU216HW,2013-03-01 10:56:00,
2013-03-01 06:01:00,27.7,21.1,30.06,NNW,338,1.8,3.8,76,0.00,,,0.00,WUHU216HW,2013-03-01 11:01:00,
2013-03-01 06:06:00,27.5,20.9,30.06,NE,45,2.9,3.8,76,0.00,,,0.00,WUHU216HW,2013-03-01 11:06:00,
2013-03-01 06:11:00,27.4,20.4,30.06,North,0,0.9,5.4,75,0.00,,,0.00,WUHU216HW,2013-03-01 11:11:00,
2013-03-01 06:16:00,27.2,20.3,30.06,North,0,0.4,5.4,75,0.00,,,0.00,WUHU216HW,2013-03-01 11:16:00,
2013-03-01 06:21:00,27.2,20.3,30.06,NNW,338,1.8,3.4,75,0.00,,,0.00,WUHU216HW,2013-03-01 11:21:00,
2013-03-01 06:26:00,27.2,20.3,30.06,North,0,0.4,3.4,75,0.00,,,0.00,WUHU216HW,2013-03-01 11:26:00,
2013-03-01 06:31:00,27.0,20.1,30.06,NNW,338,1.8,3.4,75,0.00,,,0.00,WUHU216HW,2013-03-01 11:31:00,
2013-03-01 06:36:00,27.0,19.8,30.06,NNW,338,1.1,3.8,74,0.00,,,0.00,WUHU216HW,2013-03-01 11:36:00,
2013-03-01 06:41:00,27.0,20.1,30.06,North,0,3.1,3.8,75,0.00,,,0.00,WUHU216HW,2013-03-01 11:41:00,
2013-03-01 06:46:00,26.8,19.9,30.06,NNW,338,1.8,3.1,75,0.00,,,0.00,WUHU216HW,2013-03-01 11:46:00,
2013-03-01 06:51:00,26.8,19.9,30.06,North,0,3.1,4.7,75,0.00,,,0.00,WUHU216HW,2013-03-01 11:51:00,
2013-03-01 06:56:00,26.8,19.9,30.06,NNE,23,2.0,4.7,75,0.00,,,0.00,WUHU216HW,2013-03-01 11:56:00,
2013-03-01 07:01:00,26.6,19.7,30.06,NNE,23,2.5,4.5,75,0.00,,,0.00,WUHU216HW,2013-03-01 12:01:00,
2013-03-01 07:06:00,26.6,19.7,30.06,North,0,4.3,4.5,75,0.00,,,0.00,WUHU216HW,2013-03-01 12:06:00,
2013-03-01 07:11:00,26.6,19.7,30.07,NE,45,3.4,4.3,75,0.00,,,0.00,WUHU216HW,2013-03-01 12:11:00,
2013-03-01 07:16:00,26.6,19.7,30.07,NNE,23,0.9,4.3,75,0.00,,,0.00,WUHU216HW,2013-03-01 12:16:00,
2013-03-01 07:21:00,26.5,19.5,30.07,NE,45,4.7,4.7,75,0.00,,,0.00,WUHU216HW,2013-03-01 12:21:00,
2013-03-01 07:26:00,26.3,19.4,30.07,NNE,23,4.5,4.7,75,0.00,,,0.00,WUHU216HW,2013-03-01 12:26:00,
2013-03-01 07:31:00,26.3,19.7,30.07,NW,315,3.4,4.5,76,0.00,,,0.00,WUHU216HW,2013-03-01 12:31:00,
2013-03-01 07:36:00,26.3,19.7,30.07,North,0,2.2,3.6,76,0.00,,,0.00,WUHU216HW,2013-03-01 12:36:00,
2013-03-01 07:41:00,26.3,19.7,30.07,North,0,3.4,3.4,76,0.00,,,0.00,WUHU216HW,2013-03-01 12:41:00,
2013-03-01 07:46:00,26.3,19.7,30.08,NNW,338,1.3,3.4,76,0.00,,,0.00,WUHU216HW,2013-03-01 12:46:00,
2013-03-01 07:51:00,26.3,20.0,30.08,NNE,23,2.0,2.9,77,0.00,,,0.00,WUHU216HW,2013-03-01 12:51:00,
2013-03-01 07:56:00,26.1,19.8,30.08,North,0,3.6,4.3,77,0.00,,,0.00,WUHU216HW,2013-03-01 12:56:00,
2013-03-01 08:01:00,26.1,19.8,30.09,NNW,338,0.4,4.3,77,0.00,,,0.00,WUHU216HW,2013-03-01 13:01:00,
2013-03-01 08:06:00,25.9,19.4,30.09,North,0,2.5,5.8,76,0.00,,,0.00,WUHU216HW,2013-03-01 13:06:00,
2013-03-01 08:11:00,25.9,19.4,30.09,NNE,23,1.1,5.8,76,0.00,,,0.00,WUHU216HW,2013-03-01 13:11:00,
2013-03-01 08:16:00,25.9,19.0,30.09,NNW,338,1.8,5.4,75,0.00,,,0.00,WUHU216HW,2013-03-01 13:16:00,
2013-03-01 08:21:00,25.9,19.0,30.09,NNE,23,1.6,5.4,75,0.00,,,0.00,WUHU216HW,2013-03-01 13:21:00,
2013-03-01 08:26:00,25.9,19.0,30.09,NE,45,3.1,4.5,75,0.00,,,0.00,WUHU216HW,2013-03-01 13:26:00,
2013-03-01 08:31:00,25.7,18.8,30.09,NE,45,2.9,6.3,75,0.00,,,0.00,WUHU216HW,2013-03-01 13:31:00,
2013-03-01 08:36:00,25.7,19.2,30.10,NNE,23,1.6,6.3,76,0.00,,,0.00,WUHU216HW,2013-03-01 13:36:00,
2013-03-01 08:41:00,25.9,19.4,30.10,NNW,338,1.1,4.0,76,0.00,,,0.00,WUHU216HW,2013-03-01 13:41:00,
2013-03-01 08:46:00,26.1,19.5,30.10,NNW,338,2.2,4.0,76,0.00,,,0.00,WUHU216HW,2013-03-01 13:46:00,
2013-03-01 08:51:00,26.3,20.0,30.10,NW,315,1.3,2.2,77,0.00,,,0.00,WUHU216HW,2013-03-01 13:51:00,
2013-03-01 08:56:00,26.3,20.0,30.10,North,0,4.0,4.0,77,0.00,,,0.00,WUHU216HW,2013-03-01 13:56:00,
2013-03-01 09:01:00,25.9,19.6,30.10,North,0,2.7,4.0,77,0.00,,,0.00,WUHU216HW,2013-03-01 14:01:00,
2013-03-01 09:06:00,25.9,19.6,30.11,NNW,338,1.8,3.4,77,0.00,,,0.00,WUHU216HW,2013-03-01 14:06:00,
2013-03-01 09:11:00,25.7,19.5,30.11,North,0,2.5,4.7,77,0.00,,,0.00,WUHU216HW,2013-03-01 14:11:00,
2013-03-01 09:16:00,25.7,19.2,30.11,NNW,338,1.1,5.4,76,0.00,,,0.00,WUHU216HW,2013-03-01 14:16:00,
2013-03-01 09:21:00,25.7,19.2,30.11,NNW,338,0.9,5.4,76,0.00,,,0.00,WUHU216HW,2013-03-01 14:21:00,
2013-03-01 09:26:00,25.9,19.0,30.10,NNE,23,2.0,5.8,75,0.00,,,0.00,WUHU216HW,2013-03-01 14:26:00,
2013-03-01 09:31:00,26.1,19.2,30.11,NNW,338,2.7,5.8,75,0.00,,,0.00,WUHU216HW,2013-03-01 14:31:00,
2013-03-01 09:36:00,26.1,19.2,30.11,NE,45,2.9,4.3,75,0.00,,,0.00,WUHU216HW,2013-03-01 14:36:00,
2013-03-01 09:41:00,26.1,19.5,30.11,ENE,68,0.7,5.6,76,0.00,,,0.00,WUHU216HW,2013-03-01 14:41:00,
2013-03-01 09:46:00,26.3,19.4,30.11,North,0,1.8,5.6,75,0.00,,,0.00,WUHU216HW,2013-03-01 14:46:00,
2013-03-01 09:51:00,26.3,19.4,30.11,North,0,3.6,3.6,75,0.00,,,0.00,WUHU216HW,2013-03-01 14:51:00,
2013-03-01 09:56:00,26.3,19.4,30.11,NNW,338,2.7,4.0,75,0.00,,,0.00,WUHU216HW,2013-03-01 14:56:00,
2013-03-01 10:01:00,25.7,19.2,30.11,NE,45,2.9,4.7,76,0.00,,,0.00,WUHU216HW,2013-03-01 15:01:00,
2013-03-01 10:06:00,25.7,19.5,30.11,NNE,23,4.0,4.7,77,0.00,,,0.00,WUHU216HW,2013-03-01 15:06:00,
2013-03-01 10:11:00,25.7,19.5,30.11,NNE,23,2.9,4.0,77,0.00,,,0.00,WUHU216HW,2013-03-01 15:11:00,
2013-03-01 10:16:00,25.9,19.6,30.11,NNW,338,1.8,4.0,77,0.00,,,0.00,WUHU216HW,2013-03-01 15:16:00,
2013-03-01 10:21:00,25.9,19.4,30.12,NNW,338,2.5,4.0,76,0.00,,,0.00,WUHU216HW,2013-03-01 15:21:00,
2013-03-01 10:26:00,25.9,19.6,30.12,NNW,338,2.5,5.1,77,0.00,,,0.00,WUHU216HW,2013-03-01 15:26:00,
2013-03-01 10:31:00,25.9,19.6,30.12,NNE,23,3.1,5.1,77,0.00,,,0.00,WUHU216HW,2013-03-01 15:31:00,
2013-03-01 10:36:00,26.1,19.8,30.12,NNE,23,2.7,3.1,77,0.00,,,0.00,WUHU216HW,2013-03-01 15:36:00,
2013-03-01 10:41:00,26.3,19.7,30.12,North,0,1.8,4.7,76,0.00,,,0.00,WUHU216HW,2013-03-01 15:41:00,
2013-03-01 10:46:00,25.9,19.4,30.12,North,0,2.0,4.7,76,0.00,,,0.00,WUHU216HW,2013-03-01 15:46:00,
2013-03-01 10:51:00,26.1,19.5,30.11,NE,45,1.8,4.5,76,0.00,,,0.00,WUHU216HW,2013-03-01 15:51:00,
2013-03-01 10:56:00,26.3,19.7,30.12,NNW,338,1.1,4.3,76,0.00,,,0.00,WUHU216HW,2013-03-01 15:56:00,
2013-03-01 11:01:00,26.5,19.5,30.12,NNW,338,2.5,3.4,75,0.00,,,0.00,WUHU216HW,2013-03-01 16:01:00,
2013-03-01 11:06:00,26.5,19.5,30.12,NNW,338,2.9,2.9,75,0.00,,,0.00,WUHU216HW,2013-03-01 16:06:00,
2013-03-01 11:11:00,26.3,19.4,30.12,North,0,3.4,3.6,75,0.00,,,0.00,WUHU216HW,2013-03-01 16:11:00,
2013-03-01 11:16:00,26.3,19.4,30.12,North,0,2.9,3.6,75,0.00,,,0.00,WUHU216HW,2013-03-01 16:16:00,
2013-03-01 11:21:00,26.3,19.4,30.12,NNW,338,1.1,4.0,75,0.00,,,0.00,WUHU216HW,2013-03-01 16:21:00,
2013-03-01 11:26:00,26.3,19.7,30.12,North,0,1.6,4.0,76,0.00,,,0.00,WUHU216HW,2013-03-01 16:26:00,
2013-03-01 11:31:00,26.3,19.4,30.12,NNW,338,1.3,4.0,75,0.00,,,0.00,WUHU216HW,2013-03-01 16:31:00,
2013-03-01 11:36:00,26.3,19.4,30.12,North,0,0.4,4.0,75,0.00,,,0.00,WUHU216HW,2013-03-01 16:36:00,
2013-03-01 11:41:00,26.6,19.7,30.12,North,0,1.8,4.7,75,0.00,,,0.00,WUHU216HW,2013-03-01 16:41:00,
2013-03-01 11:46:00,26.5,19.5,30.12,North,0,1.6,4.7,75,0.00,,,0.00,WUHU216HW,2013-03-01 16:46:00,
2013-03-01 11:51:00,26.5,19.5,30.13,NNE,23,2.9,2.9,75,0.00,,,0.00,WUHU216HW,2013-03-01 16:51:00,
2013-03-01 11:56:00,26.5,19.5,30.12,North,0,0.4,3.4,75,0.00,,,0.00,WUHU216HW,2013-03-01 16:56:00,
2013-03-01 12:01:00,26.6,19.7,30.12,NW,315,0.9,3.4,75,0.00,,,0.00,WUHU216HW,2013-03-01 17:01:00,
2013-03-01 12:06:00,26.6,19.7,30.12,NNE,23,1.8,2.9,75,0.00,,,0.00,WUHU216HW,2013-03-01 17:06:00,
2013-03-01 12:11:00,26.6,19.7,30.12,WSW,248,1.8,2.9,75,0.00,,,0.00,WUHU216HW,2013-03-01 17:11:00,
2013-03-01 12:16:00,26.3,19.4,30.13,North,0,2.7,2.7,75,0.00,,,0.00,WUHU216HW,2013-03-01 17:16:00,
2013-03-01 12:21:00,26.3,19.4,30.13,North,0,1.3,2.7,75,0.00,,,0.00,WUHU216HW,2013-03-01 17:21:00,
2013-03-01 12:26:00,26.3,19.4,30.12,North,0,1.8,1.8,75,0.00,,,0.00,WUHU216HW,2013-03-01 17:26:00,
2013-03-01 12:31:00,26.5,19.5,30.12,North,0,1.8,4.5,75,0.00,,,0.00,WUHU216HW,2013-03-01 17:31:00,
2013-03-01 12:36:00,26.3,19.4,30.12,NNW,338,2.2,4.5,75,0.00,,,0.00,WUHU216HW,2013-03-01 17:36:00,
2013-03-01 12:41:00,26.5,19.5,30.12,NNW,338,2.5,4.0,75,0.00,,,0.00,WUHU216HW,2013-03-01 17:41:00,
2013-03-01 12:46:00,26.3,19.4,30.12,NNW,338,3.6,4.3,75,0.00,,,0.00,WUHU216HW,2013-03-01 17:46:00,
2013-03-01 12:51:00,26.1,19.2,30.12,NNW,338,0.2,4.3,75,0.00,,,0.00,WUHU216HW,2013-03-01 17:51:00,
2013-03-01 12:56:00,26.3,19.4,30.12,North,0,1.3,3.4,75,0.00,,,0.00,WUHU216HW,2013-03-01 17:56:00,
2013-03-01 13:01:00,26.5,19.5,30.12,ESE,113,0.4,4.7,75,0.00,,,0.00,WUHU216HW,2013-03-01 18:01:00,
2013-03-01 13:06:00,26.5,19.5,30.12,NNW,338,1.8,4.7,75,0.00,,,0.00,WUHU216HW,2013-03-01 18:06:00,
2013-03-01 13:11:00,26.8,19.9,30.12,WNW,293,1.1,2.5,75,0.00,,,0.00,WUHU216HW,2013-03-01 18:11:00,
2013-03-01 13:16:00,26.6,19.7,30.12,NNW,338,2.5,3.4,75,0.00,,,0.00,WUHU216HW,2013-03-01 18:16:00,
2013-03-01 13:21:00,26.6,19.7,30.12,North,0,3.1,3.4,75,0.00,,,0.00,WUHU216HW,2013-03-01 18:21:00,
2013-03-01 13:26:00,26.6,19.7,30.12,North,0,2.2,3.1,75,0.00,,,0.00,WUHU216HW,2013-03-01 18:26:00,
2013-03-01 13:31:00,26.5,19.5,30.12,NNW,338,0.9,3.8,75,0.00,,,0.00,WUHU216HW,2013-03-01 18:31:00,
2013-03-01 13:36:00,26.6,19.7,30.12,NNE,23,1.1,3.8,75,0.00,,,0.00,WUHU216HW,2013-03-01 18:36:00,
2013-03-01 13:41:00,26.8,19.9,30.12,NNW,338,0.9,1.8,75,0.00,,,0.00,WUHU216HW,2013-03-01 18:41:00,
2013-03-01 13:46:00,27.0,20.1,30.11,WSW,248,0.2,1.8,75,0.00,,,0.00,WUHU216HW,2013-03-01 18:46:00,
2013-03-01 13:51:00,27.0,19.8,30.11,NNW,338,0.7,4.0,74,0.00,,,0.00,WUHU216HW,2013-03-01 18:51:00,
2013-03-01 13:56:00,27.0,20.1,30.11,North,0,0.4,4.0,75,0.00,,,0.00,WUHU216HW,2013-03-01 18:56:00,
2013-03-01 14:01:00,27.4,20.4,30.11,North,0,1.1,2.9,75,0.00,,,0.00,WUHU216HW,2013-03-01 19:01:00,
2013-03-01 14:06:00,27.2,20.0,30.11,NNW,338,1.6,5.1,74,0.00,,,0.00,WUHU216HW,2013-03-01 19:06:00,
2013-03-01 14:11:00,26.6,19.5,30.11,NW,315,1.6,5.1,74,0.00,,,0.00,WUHU216HW,2013-03-01 19:11:00,
2013-03-01 14:16:00,26.5,19.5,30.11,North,0,1.3,4.7,75,0.00,,,0.00,WUHU216HW,2013-03-01 19:16:00,
2013-03-01 14:21:00,26.3,19.4,30.11,NW,315,1.1,2.5,75,0.00,,,0.00,WUHU216HW,2013-03-01 19:21:00,
2013-03-01 14:26:00,26.5,19.5,30.11,NNW,338,3.4,3.4,75,0.00,,,0.00,WUHU216HW,2013-03-01 19:26:00,
2013-03-01 14:31:00,26.3,19.4,30.11,NNW,338,1.8,3.4,75,0.00,,,0.00,WUHU216HW,2013-03-01 19:31:00,
2013-03-01 14:36:00,26.5,19.5,30.11,NNW,338,1.8,2.9,75,0.00,,,0.00,WUHU216HW,2013-03-01 19:36:00,
2013-03-01 14:41:00,26.6,19.7,30.11,North,0,0.4,4.0,75,0.00,,,0.00,WUHU216HW,2013-03-01 19:41:00,
2013-03-01 14:46:00,26.6,19.7,30.10,North,0,3.4,4.0,75,0.00,,,0.00,WUHU216HW,2013-03-01 19:46:00,
2013-03-01 14:51:00,26.5,19.5,30.11,North,0,0.7,3.4,75,0.00,,,0.00,WUHU216HW,2013-03-01 19:51:00,
2013-03-01 14:56:00,26.3,19.4,30.11,NNW,338,2.5,3.1,75,0.00,,,0.00,WUHU216HW,2013-03-01 19:56:00,
2013-03-01 15:01:00,26.3,19.4,30.10,North,0,0.7,3.8,75,0.00,,,0.00,WUHU216HW,2013-03-01 20:01:00,
2013-03-01 15:06:00,26.3,19.4,30.11,NNW,338,1.1,3.8,75,0.00,,,0.00,WUHU216HW,2013-03-01 20:06:00,
2013-03-01 15:11:00,26.1,19.5,30.10,NNW,338,1.8,4.7,76,0.00,,,0.00,WUHU216HW,2013-03-01 20:11:00,
2013-03-01 15:16:00,26.1,19.2,30.10,North,0,2.2,4.7,75,0.00,,,0.00,WUHU216HW,2013-03-01 20:16:00,
2013-03-01 15:21:00,26.1,19.5,30.11,North,0,1.1,3.4,76,0.00,,,0.00,WUHU216HW,2013-03-01 20:21:00,
2013-03-01 15:26:00,26.3,19.4,30.11,East,90,2.7,3.4,75,0.00,,,0.00,WUHU216HW,2013-03-01 20:26:00,
2013-03-01 15:31:00,26.3,19.4,30.11,North,0,1.3,3.4,75,0.00,,,0.00,WUHU216HW,2013-03-01 20:31:00,
2013-03-01 15:36:00,26.1,19.2,30.11,NW,315,1.6,2.7,75,0.00,,,0.00,WUHU216HW,2013-03-01 20:36:00,
2013-03-01 15:41:00,26.1,19.2,30.11,NNW,338,1.1,2.7,75,0.00,,,0.00,WUHU216HW,2013-03-01 20:41:00,
2013-03-01 15:46:00,25.9,19.0,30.11,North,0,1.8,2.5,75,0.00,,,0.00,WUHU216HW,2013-03-01 20:46:00,
2013-03-01 15:51:00,25.9,19.0,30.11,NE,45,1.1,3.8,75,0.00,,,0.00,WUHU216HW,2013-03-01 20:51:00,
2013-03-01 15:56:00,25.9,19.0,30.11,North,0,1.3,3.8,75,0.00,,,0.00,WUHU216HW,2013-03-01 20:56:00,
2013-03-01 16:01:00,25.9,19.0,30.11,North,0,0.4,3.4,75,0.00,,,0.00,WUHU216HW,2013-03-01 21:01:00,
2013-03-01 16:06:00,26.1,19.5,30.11,NNW,338,0.4,1.3,76,0.00,,,0.00,WUHU216HW,2013-03-01 21:06:00,
2013-03-01 16:11:00,26.1,19.5,30.11,NNW,338,2.9,2.9,76,0.00,,,0.00,WUHU216HW,2013-03-01 21:11:00,
2013-03-01 16:16:00,25.9,19.4,30.11,North,0,0.9,2.9,76,0.00,,,0.00,WUHU216HW,2013-03-01 21:16:00,
2013-03-01 16:21:00,25.9,19.4,30.11,North,0,1.3,2.5,76,0.00,,,0.00,WUHU216HW,2013-03-01 21:21:00,
2013-03-01 16:26:00,25.9,19.4,30.11,ENE,68,2.9,2.9,76,0.00,,,0.00,WUHU216HW,2013-03-01 21:26:00,
2013-03-01 16:31:00,26.1,19.5,30.11,ENE,68,2.5,2.9,76,0.00,,,0.00,WUHU216HW,2013-03-01 21:31:00,
2013-03-01 16:36:00,26.3,19.7,30.12,NNW,338,1.3,2.5,76,0.00,,,0.00,WUHU216HW,2013-03-01 21:36:00,
2013-03-01 16:41:00,26.3,19.7,30.12,NNW,338,1.6,2.5,76,0.00,,,0.00,WUHU216HW,2013-03-01 21:41:00,
2013-03-01 16:46:00,26.3,19.4,30.12,NNW,338,3.4,3.4,75,0.00,,,0.00,WUHU216HW,2013-03-01 21:46:00,
2013-03-01 16:51:00,26.1,19.5,30.12,NE,45,1.1,3.4,76,0.00,,,0.00,WUHU216HW,2013-03-01 21:51:00,
2013-03-01 16:56:00,26.1,19.5,30.12,NW,315,0.2,4.7,76,0.00,,,0.00,WUHU216HW,2013-03-01 21:56:00,
2013-03-01 17:01:00,26.3,19.7,30.12,North,0,1.1,4.7,76,0.00,,,0.00,WUHU216HW,2013-03-01 22:01:00,
2013-03-01 17:06:00,26.3,19.7,30.12,NNW,338,4.0,4.0,76,0.00,,,0.00,WUHU216HW,2013-03-01 22:06:00,
2013-03-01 17:11:00,26.1,19.2,30.12,North,0,3.4,4.0,75,0.00,,,0.00,WUHU216HW,2013-03-01 22:11:00,
2013-03-01 17:16:00,25.9,19.4,30.12,NNW,338,2.5,5.8,76,0.00,,,0.00,WUHU216HW,2013-03-01 22:16:00,
2013-03-01 17:21:00,25.9,19.4,30.12,North,0,3.8,5.8,76,0.00,,,0.00,WUHU216HW,2013-03-01 22:21:00,
2013-03-01 17:26:00,25.9,19.4,30.12,NNW,338,1.8,3.8,76,0.00,,,0.00,WUHU216HW,2013-03-01 22:26:00,
2013-03-01 17:31:00,25.9,19.6,30.13,SW,225,0.4,3.6,77,0.00,,,0.00,WUHU216HW,2013-03-01 22:31:00,
2013-03-01 17:36:00,26.1,19.5,30.13,NNW,338,0.4,2.0,76,0.00,,,0.00,WUHU216HW,2013-03-01 22:36:00,
2013-03-01 17:41:00,26.1,19.8,30.13,ENE,68,2.0,2.0,77,0.00,,,0.00,WUHU216HW,2013-03-01 22:41:00,
2013-03-01 17:46:00,26.1,19.8,30.13,WNW,293,0.0,4.0,77,0.00,,,0.00,WUHU216HW,2013-03-01 22:46:00,
2013-03-01 17:51:00,26.5,20.2,30.13,NNE,23,1.3,4.0,77,0.00,,,0.00,WUHU216HW,2013-03-01 22:51:00,
2013-03-01 17:56:00,26.3,19.7,30.13,NW,315,0.4,2.2,76,0.00,,,0.00,WUHU216HW,2013-03-01 22:56:00,
2013-03-01 18:01:00,26.3,19.7,30.13,NW,315,1.1,1.8,76,0.00,,,0.00,WUHU216HW,2013-03-01 23:01:00,
2013-03-01 18:06:00,26.1,19.8,30.13,North,0,0.4,1.8,77,0.00,,,0.00,WUHU216HW,2013-03-01 23:06:00,
2013-03-01 18:11:00,26.1,19.8,30.13,NNW,338,0.4,1.8,77,0.00,,,0.00,WUHU216HW,2013-03-01 23:11:00,
2013-03-01 18:16:00,26.1,19.8,30.13,North,0,0.2,1.1,77,0.00,,,0.00,WUHU216HW,2013-03-01 23:16:00,
2013-03-01 18:21:00,26.1,19.8,30.13,North,0,0.9,2.2,77,0.00,,,0.00,WUHU216HW,2013-03-01 23:21:00,
2013-03-01 18:26:00,26.3,19.7,30.13,NNE,23,1.3,2.2,76,0.00,,,0.00,WUHU216HW,2013-03-01 23:26:00,
2013-03-01 18:31:00,26.3,20.0,30.14,NW,315,5.4,5.4,77,0.00,,,0.00,WUHU216HW,2013-03-01 23:31:00,
2013-03-01 18:36:00,26.1,19.5,30.14,NNW,338,1.6,5.4,76,0.00,,,0.00,WUHU216HW,2013-03-01 23:36:00,
2013-03-01 18:41:00,25.9,19.4,30.14,North,0,1.6,6.3,76,0.00,,,0.00,WUHU216HW,2013-03-01 23:41:00,
2013-03-01 18:46:00,25.9,19.4,30.14,NNW,338,4.9,6.3,76,0.00,,,0.00,WUHU216HW,2013-03-01 23:46:00,
2013-03-01 18:51:00,26.1,19.5,30.14,NE,45,3.4,5.4,76,0.00,,,0.00,WUHU216HW,2013-03-01 23:51:00,
2013-03-01 18:56:00,25.9,19.4,30.14,NNE,23,0.9,5.4,76,0.00,,,0.00,WUHU216HW,2013-03-01 23:56:00,
2013-03-01 19:01:00,25.9,19.4,30.14,NNW,338,1.8,5.4,76,0.00,,,0.00,WUHU216HW,2013-03-02 00:01:00,
2013-03-01 19:06:00,25.9,19.4,30.14,NNW,338,2.2,4.7,76,0.00,,,0.00,WUHU216HW,2013-03-02 00:06:00,
2013-03-01 19:11:00,25.9,19.4,30.14,NNW,338,1.1,3.4,76,0.00,,,0.00,WUHU216HW,2013-03-02 00:11:00,
2013-03-01 19:16:00,25.9,19.4,30.14,NNE,23,0.9,3.6,76,0.00,,,0.00,WUHU216HW,2013-03-02 00:16:00,
2013-03-01 19:21:00,25.9,19.4,30.14,North,0,3.6,4.0,76,0.00,,,0.00,WUHU216HW,2013-03-02 00:21:00,
2013-03-01 19:26:00,26.1,19.8,30.14,NNE,23,0.9,4.0,77,0.00,,,0.00,WUHU216HW,2013-03-02 00:26:00,
2013-03-01 19:31:00,26.1,19.8,30.14,North,0,1.1,2.0,77,0.00,,,0.00,WUHU216HW,2013-03-02 00:31:00,
2013-03-01 19:36:00,26.1,19.5,30.14,North,0,1.3,2.5,76,0.00,,,0.00,WUHU216HW,2013-03-02 00:36:00,
2013-03-01 19:41:00,25.9,19.4,30.14,NNE,23,3.8,4.5,76,0.00,,,0.00,WUHU216HW,2013-03-02 00:41:00,
2013-03-01 19:46:00,25.7,19.2,30.14,NNW,338,1.1,4.5,76,0.00,,,0.00,WUHU216HW,2013-03-02 00:46:00,
2013-03-01 19:51:00,25.9,19.4,30.14,NE,45,5.4,5.4,76,0.00,,,0.00,WUHU216HW,2013-03-02 00:51:00,
2013-03-01 19:56:00,25.7,19.2,30.15,North,0,0.4,5.4,76,0.00,,,0.00,WUHU216HW,2013-03-02 00:56:00,
2013-03-01 20:01:00,25.9,19.4,30.15,NNE,23,2.5,2.7,76,0.00,,,0.00,WUHU216HW,2013-03-02 01:01:00,
2013-03-01 20:06:00,25.9,19.4,30.14,North,0,3.6,3.6,76,0.00,,,0.00,WUHU216HW,2013-03-02 01:06:00,
2013-03-01 20:11:00,25.7,19.2,30.15,North,0,2.7,3.6,76,0.00,,,0.00,WUHU216HW,2013-03-02 01:11:00,
2013-03-01 20:16:00,25.6,19.0,30.15,NE,45,2.0,3.1,76,0.00,,,0.00,WUHU216HW,2013-03-02 01:16:00,
2013-03-01 20:21:00,25.6,19.0,30.15,North,0,1.6,2.0,76,0.00,,,0.00,WUHU216HW,2013-03-02 01:21:00,
2013-03-01 20:26:00,25.6,19.4,30.15,NNW,338,0.9,5.1,77,0.00,,,0.00,WUHU216HW,2013-03-02 01:26:00,
2013-03-01 20:31:00,25.6,19.4,30.15,NNW,338,1.1,5.1,77,0.00,,,0.00,WUHU216HW,2013-03-02 01:31:00,
2013-03-01 20:36:00,25.7,19.5,30.15,North,0,1.1,4.0,77,0.00,,,0.00,WUHU216HW,2013-03-02 01:36:00,
2013-03-01 20:41:00,25.7,19.5,30.15,North,0,1.8,4.0,77,0.00,,,0.00,WUHU216HW,2013-03-02 01:41:00,
2013-03-01 20:46:00,25.6,19.4,30.15,NNE,23,3.1,3.1,77,0.00,,,0.00,WUHU216HW,2013-03-02 01:46:00,
2013-03-01 20:51:00,25.6,19.4,30.15,North,0,1.1,3.1,77,0.00,,,0.00,WUHU216HW,2013-03-02 01:51:00,
2013-03-01 20:56:00,25.6,19.4,30.15,NE,45,1.8,2.9,77,0.00,,,0.00,WUHU216HW,2013-03-02 01:56:00,
2013-03-01 21:01:00,25.6,19.4,30.15,NNW,338,1.1,2.0,77,0.00,,,0.00,WUHU216HW,2013-03-02 02:01:00,
2013-03-01 21:06:00,25.6,19.4,30.15,NNW,338,1.8,1.8,77,0.00,,,0.00,WUHU216HW,2013-03-02 02:06:00,
2013-03-01 21:11:00,25.6,19.4,30.15,North,0,2.2,2.2,77,0.00,,,0.00,WUHU216HW,2013-03-02 02:11:00,
2013-03-01 21:16:00,25.4,19.2,30.15,NNE,23,3.1,6.3,77,0.00,,,0.00,WUHU216HW,2013-03-02 02:16:00,
2013-03-01 21:21:00,25.4,19.2,30.16,NNE,23,1.8,6.3,77,0.00,,,0.00,WUHU216HW,2013-03-02 02:21:00,
2013-03-01 21:26:00,25.2,18.4,30.16,North,0,6.0,6.0,75,0.00,,,0.00,WUHU216HW,2013-03-02 02:26:00,
2013-03-01 21:31:00,25.0,18.5,30.16,NNE,23,1.8,6.0,76,0.00,,,0.00,WUHU216HW,2013-03-02 02:31:00,
2013-03-01 21:36:00,25.2,18.4,30.16,NNW,338,2.5,8.5,75,0.00,,,0.00,WUHU216HW,2013-03-02 02:36:00,
2013-03-01 21:41:00,25.0,18.2,30.16,North,0,2.5,8.5,75,0.00,,,0.00,WUHU216HW,2013-03-02 02:41:00,
2013-03-01 21:46:00,24.8,18.0,30.16,NNE,23,2.5,5.4,75,0.00,,,0.00,WUHU216HW,2013-03-02 02:46:00,
2013-03-01 21:51:00,24.8,18.4,30.16,North,0,2.5,5.4,76,0.00,,,0.00,WUHU216HW,2013-03-02 02:51:00,
2013-03-01 21:56:00,24.8,18.4,30.16,NNW,338,2.0,4.5,76,0.00,,,0.00,WUHU216HW,2013-03-02 02:56:00,
2013-03-01 22:01:00,25.0,18.5,30.16,ENE,68,0.4,3.4,76,0.00,,,0.00,WUHU216HW,2013-03-02 03:01:00,
2013-03-01 22:06:00,25.0,18.5,30.16,NNE,23,1.1,3.4,76,0.00,,,0.00,WUHU216HW,2013-03-02 03:06:00,
2013-03-01 22:11:00,25.2,19.0,30.16,NNW,338,1.8,3.4,77,0.00,,,0.00,WUHU216HW,2013-03-02 03:11:00,
2013-03-01 22:16:00,25.0,18.8,30.16,NNW,338,1.8,3.4,77,0.00,,,0.00,WUHU216HW,2013-03-02 03:16:00,
2013-03-01 22:21:00,25.0,18.8,30.15,North,0,0.7,3.4,77,0.00,,,0.00,WUHU216HW,2013-03-02 03:21:00,
2013-03-01 22:26:00,25.2,19.0,30.15,NNW,338,1.3,2.5,77,0.00,,,0.00,WUHU216HW,2013-03-02 03:26:00,
2013-03-01 22:31:00,25.2,19.0,30.15,NE,45,0.7,2.5,77,0.00,,,0.00,WUHU216HW,2013-03-02 03:31:00,
2013-03-01 22:36:00,25.2,19.0,30.15,North,0,0.0,2.0,77,0.00,,,0.00,WUHU216HW,2013-03-02 03:36:00,
2013-03-01 22:41:00,25.4,19.2,30.15,NNW,338,0.4,1.1,77,0.00,,,0.00,WUHU216HW,2013-03-02 03:41:00,
2013-03-01 22:46:00,25.6,19.0,30.15,NNW,338,0.2,1.1,76,0.00,,,0.00,WUHU216HW,2013-03-02 03:46:00,
2013-03-01 22:51:00,25.6,18.7,30.15,West,270,0.2,1.1,75,0.00,,,0.00,WUHU216HW,2013-03-02 03:51:00,
2013-03-01 22:56:00,25.4,18.8,30.15,North,0,1.1,1.6,76,0.00,,,0.00,WUHU216HW,2013-03-02 03:56:00,
2013-03-01 23:01:00,25.4,18.6,30.15,North,0,0.0,1.6,75,0.00,,,0.00,WUHU216HW,2013-03-02 04:01:00,
2013-03-01 23:06:00,25.4,18.8,30.15,NNW,338,0.0,1.1,76,0.00,,,0.00,WUHU216HW,2013-03-02 04:06:00,
2013-03-01 23:11:00,25.4,18.6,30.14,NNW,338,1.1,1.1,75,0.00,,,0.00,WUHU216HW,2013-03-02 04:11:00,
2013-03-01 23:16:00,25.4,18.6,30.14,NW,315,0.4,1.3,75,0.00,,,0.00,WUHU216HW,2013-03-02 04:16:00,
2013-03-01 23:21:00,25.4,18.6,30.14,West,270,0.4,1.3,75,0.00,,,0.00,WUHU216HW,2013-03-02 04:21:00,
2013-03-01 23:26:00,25.4,18.6,30.14,NW,315,0.4,1.1,75,0.00,,,0.00,WUHU216HW,2013-03-02 04:26:00,
2013-03-01 23:31:00,25.4,18.8,30.13,West,270,0.0,1.1,76,0.00,,,0.00,WUHU216HW,2013-03-02 04:31:00,
2013-03-01 23:36:00,25.2,18.4,30.13,North,0,0.4,1.1,75,0.00,,,0.00,WUHU216HW,2013-03-02 04:36:00,
2013-03-01 23:41:00,25.4,18.8,30.13,North,0,3.1,3.1,76,0.00,,,0.00,WUHU216HW,2013-03-02 04:41:00,
2013-03-01 23:46:00,25.4,18.8,30.13,North,0,0.0,3.1,76,0.00,,,0.00,WUHU216HW,2013-03-02 04:46:00,
2013-03-01 23:51:00,25.4,18.8,30.13,NNW,338,0.4,1.3,76,0.00,,,0.00,WUHU216HW,2013-03-02 04:51:00,
2013-03-01 23:56:00,25.6,19.0,30.13,NW,315,0.2,1.3,76,0.00,,,0.00,WUHU216HW,2013-03-02 04:56:00,